Time;durP1;ratioP1;P1;durP2;ratioP2;P2;SDS_P1;SDS_P2;PMS_P1;PMS_P2;Temp;Humidity;BMP_temperature;BMP_pressure;BME280_temperature;BME280_humidity;BME280_pressure;Samples;Min_cycle;Max_cycle;Signal;HPM_P1;HPM_P2
2021/01/02 00:00:49;;;;;;;22.52;14.32;;;;;;;2.58;100.00;101932.31;5071566;28;20478;-63
2021/01/02 00:03:53;;;;;;;20.92;13.63;;;;;;;2.58;100.00;101927.75;5071409;28;20045;-62
2021/01/02 00:06:28;;;;;;;20.73;13.27;;;;;;;2.59;100.00;101928.59;5068901;28;20055;-62
2021/01/02 00:09:05;;;;;;;20.45;13.38;;;;;;;2.57;100.00;101926.06;5071554;28;20029;-63
2021/01/02 00:11:54;;;;;;;29.40;13.40;;;;;;;2.57;100.00;101930.63;5071544;28;20578;-63
2021/01/02 00:14:33;;;;;;;20.98;13.25;;;;;;;2.57;100.00;101936.84;5070337;28;20032;-62
2021/01/02 00:17:16;;;;;;;21.30;13.27;;;;;;;2.57;100.00;101942.25;5071371;28;20032;-65
2021/01/02 00:20:04;;;;;;;20.23;13.48;;;;;;;2.59;100.00;101934.84;5071223;28;20475;-65
2021/01/02 00:22:41;;;;;;;20.77;12.70;;;;;;;2.59;100.00;101940.22;5071184;28;20119;-65
2021/01/02 00:25:16;;;;;;;20.98;12.63;;;;;;;2.59;100.00;101934.84;5071304;28;20036;-66
2021/01/02 00:28:03;;;;;;;17.90;12.05;;;;;;;2.60;100.00;101931.16;5071265;28;20059;-65
2021/01/02 00:31:03;;;;;;;21.95;11.93;;;;;;;2.62;100.00;101934.53;5071135;28;20390;-64
2021/01/02 00:33:49;;;;;;;20.42;11.25;;;;;;;2.65;100.00;101934.19;5071032;28;20039;-65
2021/01/02 00:36:24;;;;;;;13.93;10.45;;;;;;;2.66;100.00;101933.19;5071124;28;20154;-66
2021/01/02 00:38:50;;;;;;;15.93;10.63;;;;;;;2.67;100.00;101921.38;5071099;28;20128;-66
2021/01/02 00:41:17;;;;;;;14.40;10.38;;;;;;;2.68;100.00;101933.88;5071025;28;20028;-66
2021/01/02 00:43:46;;;;;;;19.45;11.30;;;;;;;2.67;100.00;101931.34;5070895;28;20033;-65
2021/01/02 00:46:12;;;;;;;15.98;9.35;;;;;;;2.69;100.00;101934.72;5071007;28;20434;-65
2021/01/02 00:48:39;;;;;;;14.02;8.48;;;;;;;2.70;100.00;101936.41;5070826;28;20068;-65
2021/01/02 00:51:05;;;;;;;17.25;8.85;;;;;;;2.70;100.00;101941.78;5070872;28;20028;-65
2021/01/02 00:53:47;;;;;;;17.98;8.65;;;;;;;2.71;100.00;101938.94;5070335;28;20028;-65
2021/01/02 00:56:29;;;;;;;14.00;9.23;;;;;;;2.70;100.00;101939.09;5070886;28;20036;-65
2021/01/02 00:59:15;;;;;;;15.73;8.73;;;;;;;2.71;100.00;101944.31;5071193;28;20032;-65
2021/01/02 01:01:45;;;;;;;13.65;8.30;;;;;;;2.73;100.00;101942.31;5020084;28;20043;-65
2021/01/02 01:04:47;;;;;;;12.45;8.15;;;;;;;2.75;100.00;101944.00;5070676;28;20036;-65
2021/01/02 01:07:17;;;;;;;12.27;7.88;;;;;;;2.78;100.00;101943.66;5066445;28;20486;-64
2021/01/02 01:09:50;;;;;;;18.00;8.50;;;;;;;2.77;100.00;101947.38;5070619;28;20494;-65
2021/01/02 01:12:19;;;;;;;11.10;7.57;;;;;;;2.79;100.00;101950.78;5070591;28;20402;-66
2021/01/02 01:14:46;;;;;;;10.68;7.75;;;;;;;2.79;100.00;101962.41;5070703;28;20441;-64
2021/01/02 01:17:23;;;;;;;10.55;7.65;;;;;;;2.78;100.00;101949.06;5070774;28;20032;-66
2021/01/02 01:19:57;;;;;;;12.93;7.50;;;;;;;2.80;100.00;101949.75;5070671;28;20032;-65
2021/01/02 01:22:26;;;;;;;10.52;6.65;;;;;;;2.82;100.00;101950.44;5070535;28;20084;-66
2021/01/02 01:25:06;;;;;;;13.20;7.45;;;;;;;2.86;100.00;101959.88;5052413;28;20144;-66
2021/01/02 01:27:51;;;;;;;11.93;7.45;;;;;;;2.91;100.00;101960.22;5070695;28;20068;-64
2021/01/02 01:30:21;;;;;;;9.90;6.82;;;;;;;2.98;100.00;101963.97;5070544;28;20036;-65
2021/01/02 01:32:59;;;;;;;9.32;6.78;;;;;;;3.05;100.00;101956.91;5070550;28;20033;-65
2021/01/02 01:35:25;;;;;;;13.70;7.13;;;;;;;3.10;100.00;101962.63;5070603;28;20029;-66
2021/01/02 01:37:52;;;;;;;10.73;6.45;;;;;;;3.14;100.00;101972.13;5070344;28;20053;-65
2021/01/02 01:40:24;;;;;;;11.75;7.03;;;;;;;3.16;100.00;101975.50;5070492;28;20044;-65
2021/01/02 01:43:04;;;;;;;8.93;6.50;;;;;;;3.17;100.00;101971.78;5070244;28;20032;-65
2021/01/02 01:45:39;;;;;;;10.07;6.82;;;;;;;3.17;100.00;101982.56;5070375;28;20037;-65
2021/01/02 01:48:12;;;;;;;11.18;6.82;;;;;;;3.16;100.00;101975.50;5070652;28;20496;-65
2021/01/02 01:50:47;;;;;;;9.95;6.43;;;;;;;3.14;100.00;101982.91;5070337;28;20474;-65
2021/01/02 01:53:38;;;;;;;10.68;6.30;;;;;;;3.13;100.00;101981.22;5070345;28;20028;-65
2021/01/02 01:56:18;;;;;;;7.97;6.80;;;;;;;3.12;100.00;101987.59;5070740;28;20044;-65
2021/01/02 01:59:15;;;;;;;9.35;5.97;;;;;;;3.10;100.00;101981.53;5070133;28;20032;-65
2021/01/02 02:01:45;;;;;;;12.70;7.40;;;;;;;3.09;100.00;101990.63;5070315;28;20036;-65
2021/01/02 02:04:10;;;;;;;11.52;6.85;;;;;;;3.10;100.00;101991.47;5052024;28;20410;-64
2021/01/02 02:06:45;;;;;;;10.90;6.38;;;;;;;3.11;100.00;101996.72;5073871;28;20036;-65
2021/01/02 02:09:21;;;;;;;8.75;6.28;;;;;;;3.15;100.00;101995.41;5073759;28;20039;-65
2021/01/02 02:12:04;;;;;;;11.05;6.60;;;;;;;3.17;100.00;101992.53;5073774;28;20082;-66
2021/01/02 02:14:49;;;;;;;9.55;6.47;;;;;;;3.18;100.00;101992.34;5073644;28;20167;-66
2021/01/02 02:17:26;;;;;;;8.02;6.35;;;;;;;3.20;100.00;101997.59;5073728;28;20032;-65
2021/01/02 02:20:05;;;;;;;9.27;6.18;;;;;;;3.16;100.00;101997.09;5073558;28;20029;-63
2021/01/02 02:22:35;;;;;;;10.10;6.78;;;;;;;3.15;100.00;102000.78;5073642;28;20079;-63
2021/01/02 02:25:03;;;;;;;8.40;6.22;;;;;;;3.11;100.00;101999.41;5073915;28;20036;-63
2021/01/02 02:27:29;;;;;;;8.10;6.22;;;;;;;3.10;100.00;102004.97;5073477;28;20032;-63
2021/01/02 02:30:07;;;;;;;9.98;6.65;;;;;;;3.07;100.00;101999.91;5073550;28;20075;-63
2021/01/02 02:32:38;;;;;;;6.18;5.57;;;;;;;3.06;100.00;102007.16;5073341;28;20078;-63
2021/01/02 02:35:06;;;;;;;9.77;6.07;;;;;;;3.05;100.00;102005.47;5073438;28;20028;-62
2021/01/02 02:37:34;;;;;;;8.55;5.90;;;;;;;3.05;100.00;101999.25;5073178;28;20048;-63
2021/01/02 02:40:00;;;;;;;7.47;5.40;;;;;;;3.05;100.00;101993.84;5073284;28;20055;-63
2021/01/02 02:42:30;;;;;;;8.02;5.53;;;;;;;3.02;100.00;102005.81;5073145;28;20474;-63
2021/01/02 02:44:59;;;;;;;9.38;5.80;;;;;;;2.99;100.00;101998.91;5073176;28;20029;-62
2021/01/02 02:47:26;;;;;;;10.90;5.63;;;;;;;2.97;100.00;101997.38;5073088;28;20498;-63
2021/01/02 02:49:57;;;;;;;9.98;6.28;;;;;;;2.96;100.00;101996.53;5072978;28;20107;-62
2021/01/02 02:52:30;;;;;;;13.70;7.63;;;;;;;2.96;100.00;101993.84;5072922;28;20376;-63
2021/01/02 02:54:59;;;;;;;11.35;5.95;;;;;;;2.96;100.00;101995.69;5073113;28;20429;-62
2021/01/02 02:57:29;;;;;;;8.27;5.80;;;;;;;2.93;100.00;101996.00;5072999;28;20047;-63
2021/01/02 02:59:54;;;;;;;7.35;5.93;;;;;;;2.90;100.00;101993.63;5072862;28;20050;-63
2021/01/02 03:02:21;;;;;;;7.82;5.65;;;;;;;2.84;100.00;101986.19;5073192;28;20463;-63
2021/01/02 03:04:46;;;;;;;9.85;6.63;;;;;;;2.78;100.00;101986.81;5072603;28;20533;-63
2021/01/02 03:07:12;;;;;;;9.35;6.15;;;;;;;2.71;100.00;101982.09;5072810;28;20041;-62
2021/01/02 03:09:38;;;;;;;11.68;6.53;;;;;;;2.67;100.00;101972.63;5072662;28;20036;-62
2021/01/02 03:12:05;;;;;;;8.93;6.50;;;;;;;2.63;100.00;101973.97;5072810;28;20407;-62
2021/01/02 03:14:30;;;;;;;10.00;7.90;;;;;;;2.63;100.00;101965.88;5072522;28;20452;-63
2021/01/02 03:16:58;;;;;;;10.43;7.43;;;;;;;2.62;100.00;101977.69;5071647;28;20040;-63
2021/01/02 03:19:32;;;;;;;9.75;6.65;;;;;;;2.62;100.00;101982.25;5072383;28;20122;-63
2021/01/02 03:21:59;;;;;;;8.88;6.88;;;;;;;2.61;100.00;101981.41;5072434;28;20048;-63
2021/01/02 03:24:25;;;;;;;10.45;6.78;;;;;;;2.61;100.00;101981.41;5072308;28;20040;-61
2021/01/02 03:26:51;;;;;;;10.68;7.25;;;;;;;2.61;100.00;101986.78;5072415;28;20036;-62
2021/01/02 03:29:17;;;;;;;13.30;7.43;;;;;;;2.60;100.00;101987.78;5072314;28;20040;-63
2021/01/02 03:31:43;;;;;;;9.68;6.85;;;;;;;2.60;100.00;101993.19;5072256;28;20486;-63
2021/01/02 03:34:08;;;;;;;8.82;6.82;;;;;;;2.59;100.00;101994.16;5072186;28;20486;-62
2021/01/02 03:36:34;;;;;;;9.05;6.70;;;;;;;2.61;100.00;101996.72;5072153;28;20037;-62
2021/01/02 03:39:00;;;;;;;10.38;6.55;;;;;;;2.59;100.00;101994.16;5071827;28;20055;-63
2021/01/02 03:41:27;;;;;;;10.18;6.50;;;;;;;2.57;100.00;101996.19;5054305;28;20093;-63
2021/01/02 03:43:53;;;;;;;11.30;6.18;;;;;;;2.55;100.00;102009.00;5072007;28;20496;-63
2021/01/02 03:46:19;;;;;;;9.30;6.05;;;;;;;2.53;100.00;101994.81;5072059;28;20048;-64
2021/01/02 03:48:46;;;;;;;11.90;6.57;;;;;;;2.49;100.00;101998.84;5071716;28;20041;-63
2021/01/02 03:51:12;;;;;;;10.70;6.25;;;;;;;2.46;100.00;102004.56;5071847;28;20040;-63
2021/01/02 03:53:38;;;;;;;8.32;6.47;;;;;;;2.45;100.00;102000.19;5071765;28;20032;-62
2021/01/02 03:56:04;;;;;;;8.25;6.90;;;;;;;2.44;100.00;102001.19;5071822;28;20494;-63
2021/01/02 03:58:29;;;;;;;9.13;7.22;;;;;;;2.40;100.00;102006.03;5071686;28;20510;-62
2021/01/02 04:00:55;;;;;;;8.25;6.82;;;;;;;2.39;100.00;102003.50;5071854;28;20028;-63
2021/01/02 04:03:21;;;;;;;10.07;6.88;;;;;;;2.37;100.00;102006.38;5071415;28;20177;-62
2021/01/02 04:05:47;;;;;;;9.55;6.72;;;;;;;2.37;100.00;102005.53;5071667;28;20060;-62
2021/01/02 04:08:13;;;;;;;9.00;6.57;;;;;;;2.37;100.00;102006.38;5071478;28;20518;-63
2021/01/02 04:10:39;;;;;;;9.93;6.20;;;;;;;2.36;100.00;102007.38;5071440;28;20044;-63
2021/01/02 04:13:05;;;;;;;7.70;6.03;;;;;;;2.36;100.00;102001.13;5071455;28;20040;-62
2021/01/02 04:15:31;;;;;;;8.98;6.35;;;;;;;2.35;100.00;102007.53;5071408;28;20040;-63
2021/01/02 04:17:57;;;;;;;13.30;6.78;;;;;;;2.33;100.00;101996.06;5071446;28;20074;-62
2021/01/02 04:20:24;;;;;;;9.95;6.25;;;;;;;2.32;100.00;101999.78;5071377;28;20044;-63
2021/01/02 04:22:50;;;;;;;12.40;6.63;;;;;;;2.30;100.00;102001.78;5071139;28;20044;-63
2021/01/02 04:25:15;;;;;;;13.20;7.45;;;;;;;2.27;100.00;102010.19;5071246;28;20443;-62
2021/01/02 04:27:41;;;;;;;11.77;7.00;;;;;;;2.26;100.00;102008.50;5071013;28;20044;-63
2021/01/02 04:30:07;;;;;;;9.88;6.85;;;;;;;2.25;100.00;102012.19;5071114;28;20449;-62
2021/01/02 04:32:32;;;;;;;11.65;7.22;;;;;;;2.22;100.00;102007.97;5071060;28;20127;-63
2021/01/02 04:34:58;;;;;;;14.55;8.20;;;;;;;2.19;100.00;102013.66;5071167;28;20032;-62
2021/01/02 04:37:30;;;;;;;11.13;8.02;;;;;;;2.19;100.00;102018.22;5070830;28;20067;-62
2021/01/02 04:39:56;;;;;;;9.80;7.53;;;;;;;2.13;100.00;102014.31;5071016;28;20033;-63
2021/01/02 04:42:23;;;;;;;13.07;8.13;;;;;;;2.14;100.00;102020.56;5070925;28;20029;-63
2021/01/02 04:44:52;;;;;;;9.25;7.38;;;;;;;2.09;100.00;102019.19;5070870;28;20497;-62
2021/01/02 04:47:19;;;;;;;12.00;8.38;;;;;;;2.09;100.00;102021.03;5070942;28;20149;-63
2021/01/02 04:49:48;;;;;;;14.80;9.00;;;;;;;2.07;100.00;102021.16;5070946;28;20128;-62
2021/01/02 04:52:17;;;;;;;11.38;8.15;;;;;;;2.07;100.00;102029.25;5070878;28;20052;-63
2021/01/02 04:54:49;;;;;;;12.23;8.40;;;;;;;2.08;100.00;102022.88;5070835;28;20408;-63
2021/01/02 04:57:18;;;;;;;15.07;9.13;;;;;;;2.10;100.00;102026.25;5070873;28;20128;-65
2021/01/02 04:59:51;;;;;;;12.70;7.95;;;;;;;2.09;100.00;102029.13;5070818;28;20042;-65
2021/01/02 05:02:21;;;;;;;11.65;8.13;;;;;;;2.07;100.00;102026.56;5070795;28;20102;-65
2021/01/02 05:04:49;;;;;;;14.57;8.38;;;;;;;2.04;100.00;102026.03;5070695;28;20036;-65
2021/01/02 05:07:41;;;;;;;11.35;8.05;;;;;;;2.02;100.00;102031.56;5070862;28;20036;-65
2021/01/02 05:10:08;;;;;;;15.65;8.40;;;;;;;2.03;100.00;102027.03;5065908;28;20074;-66
2021/01/02 05:12:34;;;;;;;11.15;7.70;;;;;;;2.00;100.00;102025.50;5070677;28;20051;-64
2021/01/02 05:15:09;;;;;;;17.38;9.27;;;;;;;2.00;100.00;102038.97;5070620;28;20034;-65
2021/01/02 05:17:37;;;;;;;14.50;8.80;;;;;;;1.99;100.00;102034.59;5070755;28;20036;-65
2021/01/02 05:20:14;;;;;;;14.10;9.43;;;;;;;1.98;100.00;102038.28;5070531;28;20054;-65
2021/01/02 05:22:42;;;;;;;16.58;8.98;;;;;;;1.99;100.00;102039.97;5070739;28;20115;-65
2021/01/02 05:25:12;;;;;;;16.63;8.57;;;;;;;1.98;100.00;102037.44;5070686;28;20082;-65
2021/01/02 05:27:39;;;;;;;16.42;8.75;;;;;;;1.94;100.00;102041.47;5070756;28;20025;-65
2021/01/02 05:30:16;;;;;;;15.77;9.10;;;;;;;1.90;100.00;102040.91;5070832;28;20498;-65
2021/01/02 05:32:58;;;;;;;13.93;8.82;;;;;;;1.90;100.00;102045.44;5070480;28;20070;-66
2021/01/02 05:35:24;;;;;;;11.52;8.73;;;;;;;1.87;100.00;102052.00;5070492;28;20078;-64
2021/01/02 05:37:50;;;;;;;18.42;9.63;;;;;;;1.86;100.00;102049.47;5070263;28;20044;-64
2021/01/02 05:40:53;;;;;;;16.05;9.43;;;;;;;1.83;100.00;102049.78;5072537;28;20037;-65
2021/01/02 05:43:21;;;;;;;13.13;9.07;;;;;;;1.82;100.00;102048.94;4972822;28;20129;-65
2021/01/02 05:45:47;;;;;;;16.65;10.10;;;;;;;1.83;100.00;102055.16;5056609;28;20043;-65
2021/01/02 05:48:20;;;;;;;17.23;10.75;;;;;;;1.85;100.00;102062.09;5074232;28;20127;-65
2021/01/02 05:50:54;;;;;;;16.95;9.95;;;;;;;1.85;100.00;102064.78;5074207;28;20062;-66
2021/01/02 05:53:24;;;;;;;16.38;10.32;;;;;;;1.83;100.00;102061.41;5074048;28;20043;-66
2021/01/02 05:56:10;;;;;;;17.20;10.35;;;;;;;1.84;100.00;102057.69;5074150;28;20032;-65
2021/01/02 05:58:41;;;;;;;23.55;10.45;;;;;;;1.85;100.00;102061.25;5073817;28;20120;-65
2021/01/02 06:01:12;;;;;;;21.88;11.20;;;;;;;1.84;100.00;102057.69;5074027;28;20040;-65
2021/01/02 06:03:39;;;;;;;18.10;10.32;;;;;;;1.86;100.00;102060.22;5074205;28;20063;-65
2021/01/02 06:06:08;;;;;;;17.15;10.80;;;;;;;1.84;100.00;102056.84;5073881;28;20032;-65
2021/01/02 06:08:40;;;;;;;17.58;10.68;;;;;;;1.83;100.00;102055.16;5073686;28;20047;-65
2021/01/02 06:11:15;;;;;;;15.98;10.20;;;;;;;1.82;100.00;102065.09;5073974;28;20111;-65
2021/01/02 06:13:43;;;;;;;16.88;10.70;;;;;;;1.80;100.00;102067.09;5073636;28;20158;-65
2021/01/02 06:16:09;;;;;;;19.58;9.80;;;;;;;1.77;100.00;102067.41;5073683;28;20075;-65
2021/01/02 06:18:41;;;;;;;18.17;9.90;;;;;;;1.73;100.00;102066.00;5073700;28;20044;-65
2021/01/02 06:21:12;;;;;;;18.30;10.88;;;;;;;1.70;100.00;102066.31;5073749;28;20470;-65
2021/01/02 06:23:39;;;;;;;14.15;9.55;;;;;;;1.66;100.00;102070.31;5073427;28;20391;-65
2021/01/02 06:26:06;;;;;;;19.50;10.27;;;;;;;1.62;100.00;102074.34;5073517;28;20032;-65
2021/01/02 06:28:34;;;;;;;15.10;9.95;;;;;;;1.58;100.00;102078.34;5073497;28;20064;-65
2021/01/02 06:31:07;;;;;;;14.88;9.30;;;;;;;1.58;100.00;102083.72;5073400;28;20548;-65
2021/01/02 06:33:33;;;;;;;16.88;9.88;;;;;;;1.55;100.00;102089.38;5073327;28;20041;-65
2021/01/02 06:36:00;;;;;;;18.33;10.43;;;;;;;1.55;100.00;102089.38;5073575;28;20043;-66
2021/01/02 06:38:26;;;;;;;18.67;9.32;;;;;;;1.55;100.00;102089.38;5073042;28;20067;-65
2021/01/02 06:40:54;;;;;;;16.85;10.15;;;;;;;1.57;100.00;102087.41;5073207;28;20608;-65
2021/01/02 06:43:25;;;;;;;15.80;8.38;;;;;;;1.59;100.00;102074.66;5073139;28;20111;-65
2021/01/02 06:45:53;;;;;;;12.18;8.40;;;;;;;1.62;100.00;102090.50;5073241;28;20154;-65
2021/01/02 06:48:27;;;;;;;13.20;8.00;;;;;;;1.63;100.00;102089.50;5072989;28;20040;-66
2021/01/02 06:50:56;;;;;;;12.05;8.25;;;;;;;1.65;100.00;102084.78;5073099;28;20496;-66
2021/01/02 06:53:25;;;;;;;11.68;6.78;;;;;;;1.65;100.00;102091.03;5073055;28;20071;-65
2021/01/02 06:56:08;;;;;;;12.60;6.88;;;;;;;1.68;100.00;102084.47;5073016;28;20036;-66
2021/01/02 06:58:36;;;;;;;11.18;7.45;;;;;;;1.67;100.00;102096.25;5073094;28;20439;-65
2021/01/02 07:01:07;;;;;;;10.40;7.57;;;;;;;1.68;100.00;102101.47;5073002;28;20036;-66
2021/01/02 07:03:38;;;;;;;15.57;7.97;;;;;;;1.68;100.00;102100.63;5072785;28;20036;-65
2021/01/02 07:06:24;;;;;;;12.77;7.53;;;;;;;1.68;100.00;102096.09;5072834;28;20025;-65
2021/01/02 07:09:09;;;;;;;11.45;7.93;;;;;;;1.66;100.00;102108.03;5073157;28;20028;-65
2021/01/02 07:11:46;;;;;;;14.98;8.68;;;;;;;1.64;100.00;102110.03;5072654;28;20093;-65
2021/01/02 07:14:11;;;;;;;11.95;7.18;;;;;;;1.62;100.00;102104.81;5072629;28;20028;-64
2021/01/02 07:16:53;;;;;;;13.65;7.35;;;;;;;1.61;100.00;102107.66;5072631;28;20046;-65
2021/01/02 07:19:31;;;;;;;10.82;7.28;;;;;;;1.60;100.00;102097.88;5072464;28;20036;-65
2021/01/02 07:21:59;;;;;;;10.23;6.50;;;;;;;1.60;100.00;102103.25;5072474;28;20127;-65
2021/01/02 07:24:24;;;;;;;12.48;6.95;;;;;;;1.57;100.00;102103.56;5072402;28;20043;-65
2021/01/02 07:26:57;;;;;;;12.75;6.97;;;;;;;1.57;100.00;102108.97;5072626;28;20040;-65
2021/01/02 07:29:22;;;;;;;13.02;6.65;;;;;;;1.52;100.00;102102.16;5072162;28;20139;-65
2021/01/02 07:31:48;;;;;;;9.57;6.40;;;;;;;1.51;100.00;102115.78;5072333;28;20483;-66
2021/01/02 07:34:17;;;;;;;14.07;6.95;;;;;;;1.49;100.00;102124.00;5072406;28;20044;-65
2021/01/02 07:36:44;;;;;;;13.75;6.35;;;;;;;1.48;100.00;102130.41;5072233;28;20064;-65
2021/01/02 07:39:10;;;;;;;10.85;6.38;;;;;;;1.48;100.00;102126.84;5071899;28;20642;-66
2021/01/02 07:41:36;;;;;;;13.00;7.65;;;;;;;1.44;100.00;102129.00;5072285;28;20037;-65
2021/01/02 07:44:03;;;;;;;13.60;6.90;;;;;;;1.39;100.00;102133.13;5071915;28;20048;-64
2021/01/02 07:46:32;;;;;;;13.82;6.82;;;;;;;1.37;100.00;102135.97;5071986;28;20072;-65
2021/01/02 07:48:57;;;;;;;12.43;6.03;;;;;;;1.35;100.00;102137.97;5071930;28;20047;-65
2021/01/02 07:51:23;;;;;;;9.57;6.20;;;;;;;1.34;100.00;102135.44;5071971;28;20036;-65
2021/01/02 07:53:55;;;;;;;9.45;5.63;;;;;;;1.30;100.00;102134.03;5071880;28;20124;-65
2021/01/02 07:56:36;;;;;;;10.38;5.75;;;;;;;1.29;100.00;102133.19;5071778;28;20044;-65
2021/01/02 07:59:28;;;;;;;11.35;6.20;;;;;;;1.25;100.00;102142.59;5071981;28;20060;-65
2021/01/02 08:01:57;;;;;;;9.63;5.20;;;;;;;1.21;100.00;102141.16;5071564;28;20039;-65
2021/01/02 08:04:24;;;;;;;9.40;5.50;;;;;;;1.18;100.00;102146.84;5071326;28;20086;-64
2021/01/02 08:06:55;;;;;;;8.93;5.63;;;;;;;1.16;100.00;102149.69;5071686;28;20502;-65
2021/01/02 08:09:21;;;;;;;9.68;5.97;;;;;;;1.15;100.00;102155.22;5071464;28;20505;-65
2021/01/02 08:12:02;;;;;;;9.65;5.95;;;;;;;1.13;100.00;102154.53;5071496;28;20437;-65
2021/01/02 08:14:30;;;;;;;15.65;6.50;;;;;;;1.14;100.00;102153.53;5071551;28;20025;-65
2021/01/02 08:17:02;;;;;;;7.45;5.90;;;;;;;1.20;100.00;102166.38;5071407;28;20032;-65
2021/01/02 08:19:33;;;;;;;8.15;5.28;;;;;;;1.26;100.00;102165.81;5071308;28;20045;-64
2021/01/02 08:22:00;;;;;;;9.77;5.28;;;;;;;1.33;100.00;102161.50;5071410;28;20045;-64
2021/01/02 08:24:26;;;;;;;12.18;5.55;;;;;;;1.37;100.00;102168.28;5071196;28;20044;-65
2021/01/02 08:26:52;;;;;;;9.80;5.63;;;;;;;1.42;100.00;102170.53;5071239;28;20123;-65
2021/01/02 08:29:18;;;;;;;10.52;5.20;;;;;;;1.43;100.00;102167.69;5053153;28;20056;-65
2021/01/02 08:31:48;;;;;;;12.00;6.72;;;;;;;1.44;100.00;102172.09;5071295;28;20047;-66
2021/01/02 08:34:25;;;;;;;15.27;6.47;;;;;;;1.42;100.00;102167.84;5071093;28;20043;-65
2021/01/02 08:36:50;;;;;;;9.10;6.32;;;;;;;1.40;100.00;102173.38;5071450;28;20060;-65
2021/01/02 08:39:19;;;;;;;12.55;7.18;;;;;;;1.38;100.00;102175.34;5070906;28;20110;-65
2021/01/02 08:41:56;;;;;;;12.95;7.07;;;;;;;1.39;100.00;102173.50;5071124;28;20040;-65
2021/01/02 08:44:27;;;;;;;11.00;6.95;;;;;;;1.39;100.00;102179.78;5070898;28;20078;-66
2021/01/02 08:46:53;;;;;;;11.18;7.40;;;;;;;1.37;100.00;102179.03;5071108;28;20115;-65
2021/01/02 08:49:41;;;;;;;10.13;6.35;;;;;;;1.38;100.00;102180.75;5070844;28;20147;-65
2021/01/02 08:52:24;;;;;;;16.63;7.32;;;;;;;1.40;100.00;102184.16;5070941;28;20036;-65
2021/01/02 08:55:13;;;;;;;13.68;7.18;;;;;;;1.43;100.00;102189.22;5071023;28;20024;-65
2021/01/02 08:57:47;;;;;;;13.80;7.28;;;;;;;1.47;100.00;102185.25;5060206;28;20040;-65
2021/01/02 09:00:14;;;;;;;10.20;6.63;;;;;;;1.52;100.00;102188.31;5071294;28;20060;-65
2021/01/02 09:03:06;;;;;;;10.85;5.82;;;;;;;1.61;100.00;102191.97;5070886;28;20115;-64
2021/01/02 09:05:33;;;;;;;10.25;5.75;;;;;;;1.69;100.00;102191.22;5070749;28;20063;-65
2021/01/02 09:08:01;;;;;;;12.50;5.78;;;;;;;1.78;100.00;102198.41;5070764;28;20091;-65
2021/01/02 09:10:32;;;;;;;7.45;5.65;;;;;;;1.85;100.00;102194.09;5070704;28;20149;-65
2021/01/02 09:12:59;;;;;;;8.98;5.95;;;;;;;1.93;100.00;102194.19;5070860;28;20032;-66
2021/01/02 09:15:41;;;;;;;8.18;4.50;;;;;;;2.01;100.00;102199.66;5072894;28;20044;-66
2021/01/02 09:18:07;;;;;;;6.93;5.30;;;;;;;2.08;100.00;102198.06;5074803;28;20033;-65
2021/01/02 09:20:32;;;;;;;7.53;5.45;;;;;;;2.15;100.00;102190.19;5074823;28;20056;-65
2021/01/02 09:22:58;;;;;;;9.35;5.68;;;;;;;2.21;100.00;102188.72;5074543;28;20390;-65
2021/01/02 09:25:33;;;;;;;11.77;4.70;;;;;;;2.26;100.00;102191.81;5074730;28;20063;-65
2021/01/02 09:28:13;;;;;;;8.55;5.40;;;;;;;2.35;100.00;102190.88;5074446;28;20091;-65
2021/01/02 09:30:39;;;;;;;8.40;6.60;;;;;;;2.45;100.00;102197.03;5074599;28;20036;-65
2021/01/02 09:33:04;;;;;;;15.85;7.90;;;;;;;2.51;100.00;102190.16;5074465;28;20386;-66
2021/01/02 09:35:30;;;;;;;14.35;8.70;;;;;;;2.57;100.00;102179.59;5074584;28;20032;-65
2021/01/02 09:37:56;;;;;;;13.23;10.00;;;;;;;2.62;100.00;102193.47;5074334;28;20055;-66
2021/01/02 09:40:22;;;;;;;15.85;10.20;;;;;;;2.66;100.00;102194.84;5074401;28;20054;-65
2021/01/02 09:42:48;;;;;;;13.38;10.02;;;;;;;2.70;100.00;102195.38;5074525;28;20072;-65
2021/01/02 09:45:14;;;;;;;12.43;8.35;;;;;;;2.75;100.00;102192.19;5074243;28;20550;-65
2021/01/02 09:47:40;;;;;;;7.45;6.72;;;;;;;2.81;100.00;102192.41;5056288;28;20567;-66
2021/01/02 09:50:07;;;;;;;6.82;4.93;;;;;;;2.86;100.00;102184.69;5074125;28;20068;-65
2021/01/02 09:52:34;;;;;;;8.00;4.05;;;;;;;2.91;100.00;102182.34;5074305;28;20032;-65
2021/01/02 09:54:59;;;;;;;4.32;3.53;;;;;;;2.97;100.00;102186.28;5074089;28;20032;-65
2021/01/02 09:57:25;;;;;;;6.60;3.17;;;;;;;3.01;100.00;102193.06;5074122;28;20148;-66
2021/01/02 09:59:52;;;;;;;6.00;2.97;;;;;;;3.05;100.00;102189.03;5073947;28;20372;-66
2021/01/02 10:02:19;;;;;;;5.57;2.35;;;;;;;3.10;100.00;102196.63;5074074;28;20040;-65
2021/01/02 10:04:46;;;;;;;6.15;2.92;;;;;;;3.12;100.00;102198.16;5074044;28;20075;-65
2021/01/02 10:07:13;;;;;;;4.50;2.55;;;;;;;3.13;100.00;102196.34;5073928;28;20036;-65
2021/01/02 10:09:43;;;;;;;4.20;2.35;;;;;;;3.14;100.00;102196.16;5073819;28;20036;-65
2021/01/02 10:12:09;;;;;;;3.90;2.25;;;;;;;3.16;100.00;102204.09;5073666;28;20493;-66
2021/01/02 10:14:36;;;;;;;3.28;2.08;;;;;;;3.16;100.00;102196.84;5073715;28;20040;-65
2021/01/02 10:17:03;;;;;;;5.38;2.35;;;;;;;3.16;100.00;102199.56;5073663;28;20048;-65
2021/01/02 10:19:30;;;;;;;4.95;2.50;;;;;;;3.15;100.00;102200.56;5073582;28;20098;-65
2021/01/02 10:21:57;;;;;;;7.95;2.63;;;;;;;3.15;100.00;102200.56;5073561;28;20028;-65
2021/01/02 10:24:22;;;;;;;4.90;2.78;;;;;;;3.16;100.00;102191.47;5073384;28;20032;-65
2021/01/02 10:26:48;;;;;;;7.75;4.07;;;;;;;3.18;100.00;102192.13;5073050;28;20039;-65
2021/01/02 10:29:14;;;;;;;7.35;2.97;;;;;;;3.16;100.00;102191.47;5073327;28;20530;-65
2021/01/02 10:31:39;;;;;;;3.40;2.75;;;;;;;3.17;100.00;102187.75;5073638;28;20047;-65
2021/01/02 10:34:06;;;;;;;5.13;2.97;;;;;;;3.19;100.00;102190.28;5073337;28;20040;-64
2021/01/02 10:36:32;;;;;;;13.25;3.38;;;;;;;3.25;100.00;102187.78;5073360;28;20040;-65
2021/01/02 10:38:57;;;;;;;3.75;2.70;;;;;;;3.28;100.00;102179.34;5073062;28;20072;-65
2021/01/02 10:41:23;;;;;;;2.90;2.58;;;;;;;3.33;100.00;102186.97;5073218;28;20052;-65
2021/01/02 10:43:49;;;;;;;5.38;2.90;;;;;;;3.41;100.00;102188.84;5073030;28;20577;-64
2021/01/02 10:46:15;;;;;;;6.78;3.28;;;;;;;3.53;100.00;102195.66;5073095;28;20032;-65
2021/01/02 10:48:41;;;;;;;9.23;3.72;;;;;;;3.68;100.00;102185.94;5072998;28;20032;-65
2021/01/02 10:51:17;;;;;;;7.65;4.03;;;;;;;3.85;100.00;102198.50;5073347;28;20041;-65
2021/01/02 10:53:43;;;;;;;4.07;3.50;;;;;;;3.98;100.00;102191.75;5073034;28;20033;-65
2021/01/02 10:56:17;;;;;;;10.30;3.08;;;;;;;4.11;100.00;102192.09;5072988;28;20500;-62
2021/01/02 10:58:43;;;;;;;4.22;2.10;;;;;;;4.24;100.00;102187.06;5073011;28;20039;-63
2021/01/02 11:01:10;;;;;;;3.17;1.98;;;;;;;4.35;100.00;102184.03;5072891;28;20493;-62
2021/01/02 11:03:36;;;;;;;2.92;1.92;;;;;;;4.47;100.00;102171.84;5072768;28;20040;-62
2021/01/02 11:06:07;;;;;;;6.70;4.57;;;;;;;4.62;100.00;102174.72;5072816;28;20041;-63
2021/01/02 11:08:34;;;;;;;5.70;2.50;;;;;;;4.75;100.00;102168.78;5072626;28;20086;-63
2021/01/02 11:11:00;;;;;;;4.07;1.70;;;;;;;4.89;100.00;102159.97;5072962;28;20028;-62
2021/01/02 11:13:26;;;;;;;2.47;2.05;;;;;;;5.05;100.00;102170.78;5072861;28;20518;-63
2021/01/02 11:15:51;;;;;;;2.50;1.75;;;;;;;5.17;100.00;102164.97;5072733;28;20368;-62
2021/01/02 11:18:17;;;;;;;5.97;2.30;;;;;;;5.34;100.00;102159.31;5054318;28;20548;-63
2021/01/02 11:20:45;;;;;;;5.25;3.03;;;;;;;5.41;100.00;102167.59;5072494;28;20115;-63
2021/01/02 11:23:10;;;;;;;3.47;2.13;;;;;;;5.43;100.00;102160.97;5072277;28;20737;-63
2021/01/02 11:25:36;;;;;;;5.53;1.90;;;;;;;5.55;100.00;102158.69;5072700;28;20039;-63
2021/01/02 11:28:03;;;;;;;9.80;3.35;;;;;;;5.62;100.00;102151.56;5054241;28;20494;-62
2021/01/02 11:30:29;;;;;;;3.55;1.60;;;;;;;5.66;100.00;102147.47;5072275;28;20043;-62
2021/01/02 11:32:54;;;;;;;4.07;1.58;;;;;;;5.71;100.00;102149.66;5072144;28;20029;-62
2021/01/02 11:35:20;;;;;;;1.85;1.65;;;;;;;5.72;100.00;102152.16;5072163;28;20111;-63